createdAt,value
2018-11-05T00:03:44.113Z,11.00
2018-11-05T00:08:35.008Z,11.00
2018-11-05T00:13:25.900Z,11.00
2018-11-05T00:18:16.795Z,11.00
2018-11-05T00:23:07.695Z,11.00
2018-11-05T00:27:58.621Z,11.00
2018-11-05T00:32:49.556Z,11.10
2018-11-05T00:37:40.472Z,11.10
2018-11-05T00:42:31.371Z,11.00
2018-11-05T00:47:22.284Z,11.00
2018-11-05T00:52:13.192Z,11.00
2018-11-05T00:57:04.119Z,11.00
2018-11-05T01:01:55.829Z,11.10
2018-11-05T01:06:46.828Z,11.00
2018-11-05T01:11:37.729Z,11.00
2018-11-05T01:16:29.428Z,11.10
2018-11-05T01:21:20.339Z,11.00
2018-11-05T01:26:11.246Z,11.00
2018-11-05T01:31:02.156Z,11.00
2018-11-05T01:35:53.805Z,11.10
2018-11-05T01:40:45.469Z,11.10
2018-11-05T01:45:36.383Z,11.10
2018-11-05T01:50:27.284Z,11.10
2018-11-05T01:55:18.209Z,11.10
2018-11-05T02:00:09.095Z,11.10
2018-11-05T02:05:01.472Z,11.10
2018-11-05T02:09:52.396Z,11.10
2018-11-05T02:14:43.299Z,11.10
2018-11-05T02:19:34.205Z,11.10
2018-11-05T02:24:25.101Z,11.10
2018-11-05T02:29:16.004Z,11.10
2018-11-05T02:34:06.902Z,11.10
2018-11-05T02:38:57.803Z,11.10
2018-11-05T02:43:48.709Z,11.10
2018-11-05T02:48:39.629Z,11.10
2018-11-05T02:53:31.286Z,11.10
2018-11-05T02:58:22.263Z,11.10
2018-11-05T03:03:14.022Z,11.10
2018-11-05T03:08:04.897Z,11.10
2018-11-05T03:17:51.940Z,11.20
2018-11-05T03:22:43.577Z,11.20
2018-11-05T03:27:34.537Z,11.10
2018-11-05T03:32:26.205Z,11.20
2018-11-05T03:37:17.121Z,11.10
2018-11-05T03:42:08.100Z,11.20
2018-11-05T03:46:59.006Z,11.20
2018-11-05T03:51:49.925Z,11.20
2018-11-05T03:56:41.604Z,11.20
2018-11-05T04:01:32.552Z,11.20
2018-11-05T04:06:23.454Z,11.20
2018-11-05T04:11:14.376Z,11.20
2018-11-05T04:16:05.440Z,11.20
2018-11-05T04:20:56.325Z,11.20
2018-11-05T04:25:47.985Z,11.20
2018-11-05T04:30:38.897Z,11.20
2018-11-05T04:35:29.854Z,11.20
2018-11-05T04:40:20.757Z,11.30
2018-11-05T04:45:11.702Z,11.20
2018-11-05T04:50:02.587Z,11.30
2018-11-05T04:54:53.522Z,11.30
2018-11-05T04:59:45.161Z,11.30
2018-11-05T05:04:36.061Z,11.20
2018-11-05T05:09:26.970Z,11.20
2018-11-05T05:14:17.943Z,11.20
2018-11-05T05:19:08.876Z,11.20
2018-11-05T05:23:59.774Z,11.20
2018-11-05T05:28:50.697Z,11.20
2018-11-05T05:33:41.665Z,11.20
2018-11-05T05:38:32.549Z,11.20
2018-11-05T05:43:23.466Z,11.20
2018-11-05T05:48:14.364Z,11.20
2018-11-05T05:53:05.305Z,11.20
2018-11-05T05:57:56.241Z,11.20
2018-11-05T06:02:47.134Z,11.20
2018-11-05T06:07:38.042Z,11.20
2018-11-05T06:12:28.986Z,11.20
2018-11-05T06:17:19.902Z,11.20
2018-11-05T06:22:11.558Z,11.20
2018-11-05T06:27:02.461Z,11.20
2018-11-05T06:31:53.432Z,11.20
2018-11-05T06:36:44.347Z,11.20
2018-11-05T06:41:35.315Z,11.20
2018-11-05T06:46:26.928Z,11.20
2018-11-05T06:51:17.826Z,11.10
2018-11-05T06:56:08.775Z,11.20
2018-11-05T07:00:59.705Z,11.10
2018-11-05T07:05:51.425Z,11.20
2018-11-05T07:10:42.374Z,11.10
2018-11-05T07:15:33.309Z,11.10
2018-11-05T07:20:24.192Z,11.20
2018-11-05T07:25:15.125Z,11.20
2018-11-05T07:30:06.036Z,11.10
2018-11-05T07:34:56.950Z,11.20
2018-11-05T07:39:47.899Z,11.20
2018-11-05T07:44:38.811Z,11.10
2018-11-05T07:49:29.713Z,11.20
2018-11-05T07:54:21.352Z,11.20
2018-11-05T07:59:12.284Z,11.20
2018-11-05T08:04:03.928Z,11.20
2018-11-05T08:08:54.828Z,11.20
2018-11-05T08:13:45.775Z,11.20
2018-11-05T08:18:36.661Z,11.20
2018-11-05T08:23:27.563Z,11.20
2018-11-05T08:28:18.463Z,11.30
2018-11-05T08:33:09.376Z,11.30
2018-11-05T08:38:01.045Z,11.30
2018-11-05T08:42:52.012Z,11.20
2018-11-05T08:47:42.941Z,11.30
2018-11-05T08:52:33.878Z,11.30
2018-11-05T08:57:25.573Z,11.40
2018-11-05T09:02:16.487Z,11.40
2018-11-05T09:07:07.458Z,11.40
2018-11-05T09:11:58.396Z,11.50
2018-11-05T09:16:50.045Z,11.50
2018-11-05T09:21:41.015Z,11.50
2018-11-05T09:26:31.915Z,11.50
2018-11-05T09:31:22.825Z,11.50
2018-11-05T09:36:14.485Z,11.60
2018-11-05T09:41:06.144Z,11.60
2018-11-05T09:45:57.101Z,11.60
2018-11-05T09:50:49.060Z,11.70
2018-11-05T09:55:40.565Z,11.70
2018-11-05T10:00:32.124Z,11.70
2018-11-05T10:05:23.060Z,11.70
2018-11-05T10:10:13.983Z,11.70
2018-11-05T10:15:05.052Z,11.80
2018-11-05T10:19:56.046Z,11.80
2018-11-05T10:24:47.076Z,11.90
2018-11-05T10:29:37.865Z,12.10
2018-11-05T10:34:28.757Z,12.20
2018-11-05T10:39:19.671Z,12.30
2018-11-05T10:44:10.580Z,12.40
2018-11-05T10:49:02.247Z,12.70
2018-11-05T10:53:53.176Z,12.60
2018-11-05T10:58:44.090Z,12.70
2018-11-05T11:03:35.012Z,12.80
2018-11-05T11:08:25.921Z,13.00
2018-11-05T11:13:16.869Z,13.20
2018-11-05T11:18:07.769Z,13.50
2018-11-05T11:22:58.720Z,13.60
2018-11-05T11:27:49.721Z,13.90
2018-11-05T11:32:41.297Z,14.40
2018-11-05T11:37:32.209Z,14.40
2018-11-05T11:42:23.203Z,14.50
2018-11-05T11:47:14.056Z,14.60
2018-11-05T11:52:04.957Z,14.70
2018-11-05T11:56:55.870Z,14.90
2018-11-05T12:01:46.819Z,15.10
2018-11-05T12:06:37.720Z,15.30
2018-11-05T12:11:28.618Z,15.50
2018-11-05T12:16:19.574Z,15.60
2018-11-05T12:21:10.486Z,15.70
2018-11-05T12:26:01.397Z,15.90
2018-11-05T12:30:53.089Z,16.20
2018-11-05T12:35:43.996Z,16.10
2018-11-05T12:40:34.936Z,16.30
2018-11-05T12:45:26.584Z,16.30
2018-11-05T12:50:17.511Z,16.20
2018-11-05T12:55:09.186Z,16.20
2018-11-05T13:00:00.121Z,16.20
2018-11-05T13:04:51.036Z,16.20
2018-11-05T13:09:41.941Z,16.10
2018-11-05T13:14:33.589Z,16.00
2018-11-05T13:19:24.515Z,15.90
2018-11-05T13:24:15.476Z,15.90
2018-11-05T13:29:06.398Z,15.80
2018-11-05T13:33:58.085Z,15.70
2018-11-05T13:38:49.731Z,15.60
2018-11-05T13:43:40.651Z,15.60
2018-11-05T13:48:32.076Z,15.50
2018-11-05T13:53:22.518Z,15.50
2018-11-05T13:58:14.221Z,15.40
2018-11-05T14:03:05.100Z,15.30
2018-11-05T14:07:56.796Z,15.20
2018-11-05T14:12:47.794Z,15.20
2018-11-05T14:17:38.600Z,15.20
2018-11-05T14:22:29.679Z,15.10
2018-11-05T14:27:20.755Z,15.00
2018-11-05T14:32:11.622Z,14.90
2018-11-05T14:37:03.249Z,14.70
2018-11-05T14:41:54.144Z,14.70
2018-11-05T14:46:45.807Z,14.50
2018-11-05T14:51:36.768Z,14.50
2018-11-05T14:56:27.733Z,14.40
2018-11-05T15:01:19.061Z,14.30
2018-11-05T15:06:09.961Z,14.20
2018-11-05T15:11:00.923Z,14.10
2018-11-05T15:15:51.835Z,14.10
2018-11-05T15:20:42.729Z,13.90
2018-11-05T15:25:33.751Z,13.80
2018-11-05T15:30:24.593Z,13.70
2018-11-05T15:35:15.481Z,13.50
2018-11-05T15:40:06.374Z,13.40
2018-11-05T15:44:58.049Z,13.10
2018-11-05T15:49:48.947Z,13.00
2018-11-05T15:54:39.865Z,12.90
2018-11-05T15:59:31.508Z,12.60
2018-11-05T16:04:22.482Z,12.60
2018-11-05T16:09:13.330Z,12.50
2018-11-05T16:14:04.235Z,12.40
2018-11-05T16:18:55.147Z,12.30
2018-11-05T16:23:46.099Z,12.20
2018-11-05T16:28:36.981Z,12.10
2018-11-05T16:33:27.900Z,12.00
2018-11-05T16:38:18.820Z,11.80
2018-11-05T16:43:09.725Z,11.80
2018-11-05T16:48:00.642Z,11.70
2018-11-05T16:52:52.310Z,11.60
2018-11-05T16:57:43.241Z,11.60
2018-11-05T17:02:35.075Z,11.50
2018-11-05T17:07:25.852Z,11.50
2018-11-05T17:12:16.994Z,11.40
2018-11-05T17:17:07.952Z,11.40
2018-11-05T17:21:58.884Z,11.40
2018-11-05T17:26:49.793Z,11.30
2018-11-05T17:31:40.726Z,11.30
2018-11-05T17:36:32.408Z,11.20
2018-11-05T17:41:24.060Z,11.10
2018-11-05T17:46:14.966Z,11.10
2018-11-05T17:51:05.982Z,11.10
2018-11-05T17:55:56.901Z,11.10
2018-11-05T18:00:47.825Z,11.00
2018-11-05T18:05:39.501Z,10.90
2018-11-05T18:10:30.431Z,11.00
2018-11-05T18:15:21.357Z,10.90
2018-11-05T18:20:13.102Z,10.90
2018-11-05T18:25:04.014Z,10.80
2018-11-05T18:29:54.931Z,10.80
2018-11-05T18:34:45.928Z,10.80
2018-11-05T18:39:36.853Z,10.70
2018-11-05T18:44:28.537Z,10.80
2018-11-05T18:49:20.217Z,10.80
2018-11-05T18:54:11.173Z,10.70
2018-11-05T18:59:02.094Z,10.80
2018-11-05T19:03:53.146Z,10.70
2018-11-05T19:08:43.930Z,10.70
2018-11-05T19:13:34.833Z,10.70
2018-11-05T19:18:26.527Z,10.70
2018-11-05T19:23:17.615Z,10.70
2018-11-05T19:28:08.538Z,10.70
2018-11-05T19:32:59.497Z,10.70
2018-11-05T19:37:52.211Z,10.70
2018-11-05T19:42:43.380Z,10.70
2018-11-05T19:47:34.065Z,10.60
2018-11-05T19:52:24.962Z,10.60
2018-11-05T19:57:15.861Z,10.60
2018-11-05T20:02:06.853Z,10.60
2018-11-05T20:06:59.670Z,10.60
2018-11-05T20:11:50.584Z,10.50
2018-11-05T20:16:42.305Z,10.50
2018-11-05T20:21:34.620Z,10.50
2018-11-05T20:26:25.537Z,10.50
2018-11-05T20:31:16.685Z,10.50
2018-11-05T20:36:07.476Z,10.50
2018-11-05T20:40:58.385Z,10.40
2018-11-05T20:45:49.324Z,10.40
2018-11-05T22:10:36.114Z,10.40
2018-11-05T22:15:27.171Z,9.70
2018-11-05T22:20:18.231Z,9.70
2018-11-05T22:25:09.182Z,9.80
2018-11-05T22:30:00.813Z,9.80
2018-11-05T22:34:51.729Z,9.80
2018-11-05T22:39:42.695Z,9.90
2018-11-05T22:44:34.339Z,9.90
2018-11-05T22:49:25.252Z,9.90
2018-11-05T22:54:16.173Z,9.90
2018-11-05T22:59:07.916Z,10.00
2018-11-05T23:03:58.824Z,9.90
2018-11-05T23:08:49.728Z,10.00
2018-11-05T23:13:40.632Z,10.00
2018-11-05T23:18:31.546Z,9.90
2018-11-05T23:23:23.244Z,10.00
2018-11-05T23:28:14.172Z,10.00
2018-11-05T23:33:05.827Z,10.00
2018-11-05T23:37:56.755Z,9.90
2018-11-05T23:42:47.678Z,9.90
2018-11-05T23:47:38.584Z,9.90
2018-11-05T23:52:29.516Z,9.90
2018-11-05T23:57:20.443Z,9.90
